createdAt,value
2018-12-09T00:00:36.561Z,7.30
2018-12-09T00:03:06.143Z,7.20
2018-12-09T00:05:35.836Z,7.20
2018-12-09T00:08:05.329Z,7.20
2018-12-09T00:10:34.897Z,7.20
2018-12-09T00:13:04.591Z,7.20
2018-12-09T00:15:34.158Z,7.20
2018-12-09T00:18:03.755Z,7.30
2018-12-09T00:20:33.362Z,7.30
2018-12-09T00:23:02.942Z,7.30
2018-12-09T00:25:32.506Z,7.30
2018-12-09T00:28:02.119Z,7.30
2018-12-09T00:30:31.691Z,7.30
2018-12-09T00:33:01.298Z,7.20
2018-12-09T00:35:30.934Z,7.20
2018-12-09T00:38:00.502Z,7.20
2018-12-09T00:40:30.159Z,7.20
2018-12-09T00:42:59.758Z,7.20
2018-12-09T00:45:29.318Z,7.20
2018-12-09T00:47:58.893Z,7.20
2018-12-09T00:50:28.490Z,7.20
2018-12-09T00:52:58.175Z,7.20
2018-12-09T00:55:27.975Z,7.20
2018-12-09T00:57:57.543Z,7.10
2018-12-09T01:00:27.124Z,7.10
2018-12-09T01:02:56.735Z,7.10
2018-12-09T01:05:26.314Z,7.00
2018-12-09T01:07:55.914Z,7.00
2018-12-09T01:10:25.516Z,6.90
2018-12-09T01:12:55.117Z,6.90
2018-12-09T01:15:24.786Z,6.80
2018-12-09T01:17:54.346Z,6.80
2018-12-09T01:20:23.978Z,6.80
2018-12-09T01:22:53.551Z,6.80
2018-12-09T01:25:23.166Z,6.80
2018-12-09T01:27:52.758Z,6.70
2018-12-09T01:30:22.378Z,6.70
2018-12-09T01:32:52.042Z,6.70
2018-12-09T01:35:21.725Z,6.70
2018-12-09T01:37:51.336Z,6.70
2018-12-09T01:40:20.906Z,6.70
2018-12-09T01:42:50.553Z,6.70
2018-12-09T01:45:20.180Z,6.70
2018-12-09T01:47:49.804Z,6.80
2018-12-09T01:51:48.872Z,6.80
2018-12-09T01:54:19.349Z,6.80
2018-12-09T01:56:48.973Z,6.70
2018-12-09T01:59:18.536Z,6.70
2018-12-09T02:01:49.325Z,6.70
2018-12-09T02:04:18.948Z,6.70
2018-12-09T02:06:48.531Z,6.60
2018-12-09T02:09:18.115Z,6.70
2018-12-09T02:11:47.759Z,6.70
2018-12-09T02:14:17.330Z,6.70
2018-12-09T02:16:46.901Z,6.70
2018-12-09T02:19:18.744Z,6.70
2018-12-09T02:21:48.505Z,6.60
2018-12-09T02:24:18.402Z,6.70
2018-12-09T02:26:49.340Z,6.60
2018-12-09T02:29:18.929Z,6.60
2018-12-09T02:31:48.539Z,6.60
2018-12-09T02:34:18.150Z,6.50
2018-12-09T02:36:47.734Z,6.50
2018-12-09T02:39:17.360Z,6.50
2018-12-09T02:41:46.977Z,6.40
2018-12-09T02:44:16.637Z,6.40
2018-12-09T02:46:46.449Z,6.40
2018-12-09T02:49:16.036Z,6.40
2018-12-09T02:51:45.626Z,6.50
2018-12-09T02:54:15.198Z,6.40
2018-12-09T02:56:44.776Z,6.40
2018-12-09T02:59:14.573Z,6.40
2018-12-09T03:01:44.154Z,6.40
2018-12-09T03:04:14.969Z,6.40
2018-12-09T03:06:44.549Z,6.30
2018-12-09T03:09:14.125Z,6.40
2018-12-09T03:11:45.022Z,6.40
2018-12-09T03:14:14.607Z,6.40
2018-12-09T03:16:44.198Z,6.40
2018-12-09T03:19:13.815Z,6.30
2018-12-09T03:21:43.378Z,6.30
2018-12-09T03:24:13.011Z,6.30
2018-12-09T03:26:42.596Z,6.30
2018-12-09T03:29:12.165Z,6.30
2018-12-09T03:31:42.010Z,6.30
2018-12-09T03:34:11.614Z,6.30
2018-12-09T03:36:41.189Z,6.20
2018-12-09T03:39:10.778Z,6.20
2018-12-09T03:41:40.354Z,6.20
2018-12-09T03:44:09.986Z,6.20
2018-12-09T03:46:39.576Z,6.20
2018-12-09T03:49:09.182Z,6.20
2018-12-09T03:51:38.833Z,6.10
2018-12-09T03:54:08.356Z,6.10
2018-12-09T03:56:37.958Z,6.10
2018-12-09T03:59:08.871Z,6.00
2018-12-09T04:01:38.446Z,6.00
2018-12-09T04:04:08.050Z,6.00
2018-12-09T04:06:37.629Z,6.00
2018-12-09T04:09:07.258Z,6.00
2018-12-09T04:11:36.863Z,6.00
2018-12-09T04:14:06.439Z,6.00
2018-12-09T04:16:36.075Z,6.00
2018-12-09T09:02:11.138Z,5.70
2018-12-09T09:04:43.367Z,5.70
2018-12-09T09:07:13.056Z,5.80
2018-12-09T09:29:36.112Z,6.40
2018-12-09T09:32:05.689Z,6.40
2018-12-09T09:34:35.241Z,6.40
2018-12-09T09:37:06.120Z,6.40
2018-12-09T09:39:35.694Z,6.40
2018-12-09T09:42:05.307Z,6.40
2018-12-09T09:44:35.149Z,6.40
2018-12-09T09:47:04.726Z,6.50
2018-12-09T09:49:34.320Z,6.50
2018-12-09T09:52:03.953Z,6.50
2018-12-09T09:54:33.557Z,6.60
2018-12-09T09:57:03.157Z,6.50
2018-12-09T09:59:32.771Z,6.50
2018-12-09T10:02:02.353Z,6.50
2018-12-09T10:04:33.248Z,6.60
2018-12-09T10:07:02.818Z,6.60
2018-12-09T10:09:32.397Z,6.60
2018-12-09T10:12:02.061Z,6.60
2018-12-09T10:14:31.650Z,6.60
2018-12-09T10:17:01.258Z,6.70
2018-12-09T10:19:32.059Z,6.70
2018-12-09T10:22:01.645Z,6.70
2018-12-09T10:24:31.282Z,6.70
2018-12-09T10:27:02.155Z,6.70
2018-12-09T10:29:31.745Z,6.70
2018-12-09T10:32:02.479Z,6.70
2018-12-09T10:34:38.703Z,6.70
2018-12-09T10:37:01.682Z,6.80
2018-12-09T10:39:31.332Z,6.80
2018-12-09T10:42:00.926Z,6.90
2018-12-09T10:44:30.591Z,7.00
2018-12-09T10:47:00.234Z,7.00
2018-12-09T10:49:29.827Z,7.10
2018-12-09T10:51:59.460Z,7.10
2018-12-09T10:54:29.089Z,7.10
2018-12-09T10:56:58.669Z,7.10
2018-12-09T10:59:28.347Z,7.10
2018-12-09T11:02:02.367Z,7.20
2018-12-09T11:04:31.936Z,7.30
2018-12-09T11:07:01.522Z,7.40
2018-12-09T11:09:31.959Z,7.40
2018-12-09T11:12:01.670Z,7.40
2018-12-09T11:14:31.277Z,7.30
2018-12-09T11:17:02.716Z,7.40
2018-12-09T11:19:35.329Z,7.30
2018-12-09T11:22:07.567Z,7.40
2018-12-09T11:24:38.146Z,7.50
2018-12-09T11:27:07.951Z,7.60
2018-12-09T11:29:38.179Z,7.70
2018-12-09T11:32:08.191Z,7.80
2018-12-09T11:34:38.759Z,8.00
2018-12-09T11:37:09.784Z,8.20
2018-12-09T11:39:39.367Z,8.30
2018-12-09T11:42:08.998Z,8.50
2018-12-09T11:44:41.166Z,8.70
2018-12-09T11:47:10.863Z,8.80
2018-12-09T11:49:40.934Z,9.00
2018-12-09T11:52:10.586Z,9.00
2018-12-09T11:54:40.977Z,9.00
2018-12-09T11:57:10.627Z,8.90
2018-12-09T11:59:40.204Z,8.90
2018-12-09T12:02:09.966Z,8.80
2018-12-09T12:04:40.989Z,8.70
2018-12-09T12:07:10.576Z,8.60
2018-12-09T12:09:40.242Z,8.50
2018-12-09T12:12:09.907Z,8.50
2018-12-09T12:14:39.708Z,8.50
2018-12-09T12:17:09.326Z,8.50
2018-12-09T12:19:38.907Z,8.50
2018-12-09T12:22:08.542Z,8.50
2018-12-09T12:24:38.646Z,8.50
2018-12-09T12:27:08.265Z,8.50
2018-12-09T12:29:37.845Z,8.50
2018-12-09T12:32:07.474Z,8.50
2018-12-09T12:34:37.095Z,8.40
2018-12-09T12:37:10.594Z,8.30
2018-12-09T12:39:40.174Z,8.30
2018-12-09T12:42:09.853Z,8.20
2018-12-09T12:44:39.498Z,8.10
2018-12-09T12:47:09.206Z,8.10
2018-12-09T12:49:38.812Z,8.00
2018-12-09T12:52:08.511Z,8.00
2018-12-09T12:54:39.395Z,7.90
2018-12-09T12:57:10.248Z,7.90
2018-12-09T12:59:39.905Z,7.90
2018-12-09T13:02:09.532Z,7.80
2018-12-09T13:04:39.140Z,7.80
2018-12-09T13:07:08.739Z,7.70
2018-12-09T13:09:38.437Z,7.70
2018-12-09T13:12:09.639Z,7.70
2018-12-09T13:14:39.660Z,7.70
2018-12-09T13:17:09.256Z,7.70
2018-12-09T13:19:40.127Z,7.70
2018-12-09T13:22:11.660Z,7.70
2018-12-09T13:24:41.228Z,7.70
2018-12-09T13:27:11.716Z,7.70
2018-12-09T13:29:41.332Z,7.70
2018-12-09T13:32:10.941Z,7.70
2018-12-09T13:34:40.513Z,7.70
2018-12-09T13:37:10.426Z,7.60
2018-12-09T13:39:39.998Z,7.70
2018-12-09T13:42:10.846Z,7.90
2018-12-09T13:44:40.398Z,8.10
2018-12-09T13:47:10.031Z,8.30
2018-12-09T13:49:39.641Z,8.50
2018-12-09T13:52:09.239Z,8.70
2018-12-09T13:54:40.094Z,8.80
2018-12-09T13:57:11.203Z,8.90
2018-12-09T13:59:42.118Z,8.90
2018-12-09T14:02:11.677Z,9.00
2018-12-09T14:04:41.270Z,9.00
2018-12-09T14:07:10.877Z,9.00
2018-12-09T14:09:40.696Z,9.10
2018-12-09T14:12:10.257Z,9.10
2018-12-09T14:14:39.865Z,9.10
2018-12-09T14:17:10.744Z,9.10
2018-12-09T14:19:40.355Z,9.10
2018-12-09T14:22:09.949Z,9.10
2018-12-09T14:24:39.581Z,9.00
2018-12-09T14:27:09.269Z,9.00
2018-12-09T14:29:38.834Z,9.00
2018-12-09T14:32:09.258Z,9.00
2018-12-09T14:34:39.023Z,9.00
2018-12-09T14:37:08.815Z,9.00
2018-12-09T14:39:41.079Z,9.00
2018-12-09T14:42:10.670Z,9.00
2018-12-09T14:44:41.555Z,9.00
2018-12-09T14:47:11.144Z,9.00
2018-12-09T14:49:40.845Z,9.00
2018-12-09T14:52:10.465Z,9.00
2018-12-09T14:54:40.249Z,9.00
2018-12-09T14:57:13.480Z,9.00
2018-12-09T14:59:43.082Z,9.00
2018-12-09T15:02:12.925Z,9.10
2018-12-09T15:04:42.692Z,9.10
2018-12-09T15:07:12.329Z,9.10
2018-12-09T15:09:42.190Z,9.10
2018-12-09T15:12:13.206Z,9.10
2018-12-09T15:14:43.047Z,9.20
2018-12-09T15:17:12.568Z,9.30
2018-12-09T15:19:44.656Z,9.30
2018-12-09T15:22:14.268Z,9.30
2018-12-09T15:24:45.651Z,9.40
2018-12-09T15:27:15.258Z,9.40
2018-12-09T15:29:46.145Z,9.40
2018-12-09T15:32:15.970Z,9.40
2018-12-09T15:34:45.583Z,9.40
2018-12-09T15:37:15.249Z,9.40
2018-12-09T15:39:45.204Z,9.60
2018-12-09T15:42:14.794Z,9.60
2018-12-09T15:44:44.400Z,9.50
2018-12-09T15:47:15.290Z,9.50
2018-12-09T15:49:44.854Z,9.40
2018-12-09T15:52:14.539Z,9.40
2018-12-09T15:54:44.134Z,9.40
2018-12-09T15:57:13.785Z,9.40
2018-12-09T15:59:44.729Z,9.30
2018-12-09T16:02:14.351Z,9.30
2018-12-09T16:04:44.046Z,9.30
2018-12-09T16:07:13.761Z,9.20
2018-12-09T16:09:43.392Z,9.20
2018-12-09T16:12:14.178Z,9.10
2018-12-09T16:14:42.781Z,9.10
2018-12-09T16:17:12.453Z,9.00
2018-12-09T16:19:43.354Z,9.00
2018-12-09T16:22:13.011Z,9.00
2018-12-09T16:24:42.640Z,9.00
2018-12-09T16:27:12.333Z,9.10
2018-12-09T16:29:44.508Z,9.10
2018-12-09T16:32:14.221Z,9.00
2018-12-09T16:34:45.151Z,9.00
2018-12-09T16:37:14.730Z,9.00
2018-12-09T16:39:44.322Z,9.00
2018-12-09T16:42:13.900Z,9.00
2018-12-09T16:44:43.462Z,9.00
2018-12-09T16:47:13.041Z,9.00
2018-12-09T16:49:42.601Z,9.00
2018-12-09T16:52:12.168Z,9.00
2018-12-09T16:54:41.802Z,8.90
2018-12-09T16:57:11.385Z,8.90
2018-12-09T16:59:40.944Z,8.90
2018-12-09T17:02:10.604Z,8.90
2018-12-09T17:04:41.476Z,8.90
2018-12-09T17:07:11.084Z,8.90
2018-12-09T17:09:40.861Z,8.90
2018-12-09T17:12:10.497Z,9.00
2018-12-09T17:14:40.103Z,9.00
2018-12-09T17:17:09.679Z,9.00
2018-12-09T17:19:40.534Z,9.00
2018-12-09T17:22:11.792Z,9.00
2018-12-09T17:24:41.433Z,9.20
2018-12-09T17:27:12.345Z,9.40
2018-12-09T17:29:42.831Z,9.50
2018-12-09T17:32:15.319Z,9.40
2018-12-09T17:34:45.178Z,9.10
2018-12-09T17:37:15.371Z,8.90
2018-12-09T17:39:46.528Z,8.60
2018-12-09T17:42:21.210Z,8.30
2018-12-09T17:46:26.014Z,8.00
2018-12-09T17:49:01.961Z,7.60
2018-12-09T17:51:31.682Z,7.00
2018-12-09T17:54:01.452Z,6.80
2018-12-09T17:56:31.126Z,6.60
2018-12-09T17:59:01.518Z,6.50
2018-12-09T18:01:31.280Z,6.40
2018-12-09T18:04:02.050Z,6.40
2018-12-09T18:06:33.015Z,6.40
2018-12-09T18:09:02.658Z,6.40
2018-12-09T18:11:32.315Z,6.40
2018-12-09T18:14:02.094Z,6.40
2018-12-09T18:16:31.742Z,6.40
2018-12-09T18:19:01.429Z,6.40
2018-12-09T18:21:31.100Z,6.40
2018-12-09T18:24:00.916Z,6.40
2018-12-09T18:26:30.552Z,6.50
2018-12-09T18:29:01.428Z,6.50
2018-12-09T18:31:33.450Z,6.50
2018-12-09T18:34:03.075Z,6.60
2018-12-09T18:36:32.736Z,6.50
2018-12-09T18:39:02.382Z,6.50
2018-12-09T18:41:34.461Z,6.50
2018-12-09T18:44:04.119Z,6.50
2018-12-09T18:46:39.588Z,6.40
2018-12-09T18:49:13.536Z,6.40
2018-12-09T18:51:45.219Z,6.30
2018-12-09T18:54:16.537Z,6.30
2018-12-09T18:59:57.202Z,6.10
2018-12-09T19:19:29.154Z,5.70
2018-12-09T19:21:59.045Z,5.30
2018-12-09T19:24:31.762Z,5.30
2018-12-09T19:27:01.766Z,5.40
2018-12-09T19:29:31.552Z,5.40
2018-12-09T19:32:01.503Z,5.50
2018-12-09T19:34:32.318Z,5.50
2018-12-09T19:37:02.313Z,5.50
2018-12-09T19:39:34.447Z,5.40
2018-12-09T19:42:28.560Z,5.40
2018-12-09T19:44:58.333Z,5.30
2018-12-09T19:47:29.257Z,5.30
2018-12-09T19:50:01.019Z,5.30
2018-12-09T19:52:30.610Z,5.30
2018-12-09T19:55:02.552Z,5.30
2018-12-09T19:57:33.511Z,5.30
2018-12-09T20:00:03.113Z,5.30
2018-12-09T20:02:34.178Z,5.30
2018-12-09T20:05:03.810Z,5.40
2018-12-09T20:07:33.415Z,5.40
2018-12-09T20:10:04.574Z,5.40
2018-12-09T20:12:34.406Z,5.50
2018-12-09T20:15:04.083Z,5.60
2018-12-09T20:17:34.051Z,5.60
2018-12-09T20:20:05.787Z,5.60
2018-12-09T20:22:35.554Z,5.60
2018-12-09T20:25:05.575Z,5.60
2018-12-09T20:27:36.705Z,5.50
2018-12-09T20:30:07.902Z,5.50
2018-12-09T20:32:37.542Z,5.40
2018-12-09T20:35:10.396Z,5.40
2018-12-09T20:37:40.013Z,5.40
2018-12-09T20:40:09.659Z,5.40
2018-12-09T20:42:48.054Z,5.30
2018-12-09T20:45:10.538Z,5.30
2018-12-09T20:47:40.189Z,5.40
2018-12-09T20:50:10.271Z,5.30
2018-12-09T20:52:39.921Z,5.40
2018-12-09T20:55:09.544Z,5.40
2018-12-09T20:57:39.145Z,5.50
2018-12-09T21:00:10.516Z,5.60
2018-12-09T21:02:40.127Z,5.70
2018-12-09T21:05:09.988Z,5.70
2018-12-09T21:07:39.686Z,5.80
2018-12-09T21:10:10.419Z,5.80
2018-12-09T21:12:40.749Z,6.00
2018-12-09T21:15:11.736Z,6.10
2018-12-09T21:17:42.651Z,6.20
2018-12-09T21:20:12.264Z,6.30
2018-12-09T21:22:41.913Z,6.40
2018-12-09T21:25:11.511Z,6.50
2018-12-09T21:27:41.193Z,6.60
2018-12-09T21:30:10.824Z,6.70
2018-12-09T21:32:40.425Z,6.90
2018-12-09T21:35:10.019Z,6.90
2018-12-09T21:37:42.018Z,6.90
2018-12-09T21:40:10.657Z,6.80
2018-12-09T21:42:40.227Z,6.70
2018-12-09T21:45:09.829Z,6.60
2018-12-09T21:47:39.411Z,6.40
2018-12-09T21:50:10.434Z,6.30
2018-12-09T21:52:40.208Z,6.20
2018-12-09T21:55:09.977Z,6.10
2018-12-09T21:57:42.306Z,6.00
2018-12-09T22:00:11.923Z,5.90
2018-12-09T22:02:41.638Z,5.80
2018-12-09T22:05:11.366Z,5.70
2018-12-09T22:07:41.028Z,5.70
2018-12-09T22:10:11.833Z,5.60
2018-12-09T22:12:41.457Z,5.60
2018-12-09T22:15:12.506Z,5.50
2018-12-09T22:17:42.077Z,5.60
2018-12-09T22:20:11.728Z,5.70
2018-12-09T22:22:41.489Z,5.80
2018-12-09T22:25:11.107Z,5.80
2018-12-09T22:27:40.714Z,5.80
2018-12-09T22:30:10.473Z,5.80
2018-12-09T22:32:40.063Z,5.70
2018-12-09T22:35:09.706Z,5.60
2018-12-09T22:37:39.346Z,5.60
2018-12-09T22:40:08.952Z,5.50
2018-12-09T22:42:38.557Z,5.60
2018-12-09T22:45:08.165Z,5.50
2018-12-09T22:47:38.535Z,5.50
2018-12-09T22:50:08.096Z,5.60
2018-12-09T22:52:40.119Z,5.70
2018-12-09T22:55:09.741Z,5.90
2018-12-09T22:57:39.311Z,6.00
2018-12-09T23:00:17.377Z,6.10
2018-12-09T23:02:53.770Z,6.20
2018-12-09T23:05:23.403Z,6.30
2018-12-09T23:07:54.193Z,6.40
2018-12-09T23:10:25.061Z,6.40
2018-12-09T23:12:54.636Z,6.30
2018-12-09T23:15:24.299Z,6.20
2018-12-09T23:17:53.857Z,6.10
2018-12-09T23:20:23.454Z,6.00
2018-12-09T23:22:53.117Z,6.00
2018-12-09T23:25:22.721Z,5.90
2018-12-09T23:27:52.782Z,5.90
2018-12-09T23:30:22.358Z,5.90
2018-12-09T23:32:51.963Z,5.90
2018-12-09T23:35:21.550Z,5.90
2018-12-09T23:37:51.175Z,5.90
2018-12-09T23:40:21.692Z,5.90
2018-12-09T23:42:52.636Z,5.80
2018-12-09T23:45:22.290Z,5.80
2018-12-09T23:47:51.841Z,5.80
2018-12-09T23:50:21.455Z,5.80
2018-12-09T23:52:52.277Z,5.80
2018-12-09T23:55:21.877Z,5.80
2018-12-09T23:57:51.480Z,5.80
